Terminal Aerodrome Forecast
Issued by NWS

Home | Current Version | Previous Version | Graphics & Text | Print | Product List | Glossary On
Versions: 1 2 3 4 5 6 7 8 9 10 11 12 13 14 15 16 17 18 19 20
210
FTUS43 KABR 142328
TAFMBG
TAF
KMBG 142328Z 1500/1524 31010KT P6SM BKN100
     FM150200 VRB06KT P6SM BKN100
     FM151200 36015KT P6SM OVC015
     FM151500 35015G25KT 3SM -SHSN OVC015
     FM151800 35018G25KT 1SM -SHSN BLSN OVC015
     FM152100 34015KT P6SM OVC020
     FM152300 33015KT P6SM BKN070=

USA.gov is the U.S. government's official web portal to all federal, state and local government web resources and services.